Time;durP1;ratioP1;P1;durP2;ratioP2;P2;SDS_P1;SDS_P2;PMS_P1;PMS_P2;Temp;Humidity;BMP_temperature;BMP_pressure;BME280_temperature;BME280_humidity;BME280_pressure;Samples;Min_cycle;Max_cycle;Signal;HPM_P1;HPM_P2
2022/02/16 00:00:23;;;;;;;16.05;10.13;;;9.30;91.10;;;;;;6127480;22;98482;-76
2022/02/16 00:02:51;;;;;;;23.02;10.93;;;9.30;91.10;;;;;;6128023;22;92398;-76
2022/02/16 00:05:18;;;;;;;18.15;11.00;;;9.30;91.10;;;;;;6127997;22;92419;-76
2022/02/16 00:07:47;;;;;;;15.55;9.35;;;9.30;91.10;;;;;;6127021;22;97963;-76
2022/02/16 00:10:16;;;;;;;19.58;10.10;;;9.30;91.10;;;;;;6103421;22;95426;-76
2022/02/16 00:12:43;;;;;;;16.83;9.73;;;9.20;91.10;;;;;;6102830;22;92818;-76
2022/02/16 00:15:13;;;;;;;20.17;10.15;;;9.20;91.40;;;;;;6155597;22;91684;-76
2022/02/16 00:17:42;;;;;;;17.08;9.57;;;9.20;91.20;;;;;;6127251;22;94704;-76
2022/02/16 00:20:10;;;;;;;19.27;8.70;;;9.20;91.20;;;;;;6154915;22;92934;-76
2022/02/16 00:22:38;;;;;;;13.95;8.63;;;9.20;91.20;;;;;;6127091;22;94840;-70
2022/02/16 00:25:06;;;;;;;17.52;8.20;;;9.20;91.20;;;;;;6129159;22;92766;-69
2022/02/16 00:27:33;;;;;;;20.98;8.25;;;9.10;91.20;;;;;;6154357;22;103461;-69
2022/02/16 00:30:00;;;;;;;17.20;8.20;;;9.10;91.10;;;;;;6127529;22;95482;-69
2022/02/16 00:32:27;;;;;;;13.88;7.35;;;9.10;91.20;;;;;;6128190;22;92979;-70
2022/02/16 00:34:54;;;;;;;14.57;7.22;;;9.10;91.10;;;;;;6128071;22;92450;-70
2022/02/16 00:37:21;;;;;;;16.52;6.90;;;9.10;91.20;;;;;;6128512;22;93262;-69
2022/02/16 00:39:49;;;;;;;13.48;6.72;;;9.10;91.20;;;;;;6128177;22;95556;-70
2022/02/16 00:42:16;;;;;;;14.63;6.25;;;9.10;91.20;;;;;;6154887;22;92360;-69
2022/02/16 00:44:43;;;;;;;17.30;7.57;;;9.10;91.20;;;;;;6128059;22;92487;-69
2022/02/16 00:47:12;;;;;;;18.95;7.28;;;9.10;91.30;;;;;;6127559;22;98028;-70
2022/02/16 00:49:39;;;;;;;16.65;7.32;;;9.10;91.30;;;;;;6104305;22;98083;-70
2022/02/16 00:52:06;;;;;;;20.30;7.40;;;9.10;91.30;;;;;;6156256;22;92311;-69
2022/02/16 00:54:35;;;;;;;18.63;7.40;;;9.10;91.30;;;;;;6129338;22;92451;-70
2022/02/16 00:57:02;;;;;;;14.07;7.07;;;9.10;91.30;;;;;;6104078;22;95740;-69
2022/02/16 00:59:30;;;;;;;12.27;6.43;;;9.10;91.20;;;;;;6144560;22;95343;-70
2022/02/16 01:02:03;;;;;;;19.45;7.38;;;9.10;91.20;;;;;;6154388;22;92368;-69
2022/02/16 01:04:30;;;;;;;15.18;7.18;;;9.10;91.30;;;;;;6154831;22;91739;-69
2022/02/16 01:06:57;;;;;;;13.70;6.72;;;9.00;91.30;;;;;;6153923;22;95406;-69
2022/02/16 01:09:24;;;;;;;17.70;7.38;;;9.10;91.30;;;;;;6129296;22;95518;-69
2022/02/16 01:11:53;;;;;;;17.60;6.43;;;9.10;91.40;;;;;;6152589;22;94815;-70
2022/02/16 01:14:26;;;;;;;13.00;5.65;;;9.00;91.40;;;;;;6154736;22;92914;-70
2022/02/16 01:17:13;;;;;;;10.43;5.78;;;9.00;91.40;;;;;;6134922;22;92825;-70
2022/02/16 01:19:53;;;;;;;15.90;5.65;;;9.00;91.20;;;;;;6153669;22;94873;-69
2022/02/16 01:22:22;;;;;;;16.60;5.53;;;9.00;91.30;;;;;;6154153;22;92351;-69
2022/02/16 01:24:50;;;;;;;13.10;6.15;;;9.00;91.20;;;;;;6153850;22;92448;-70
2022/02/16 01:27:19;;;;;;;14.30;5.55;;;9.00;91.20;;;;;;6153868;22;94115;-69
2022/02/16 01:29:49;;;;;;;17.13;6.32;;;9.00;91.20;;;;;;6154473;22;95333;-70
2022/02/16 01:32:37;;;;;;;15.48;6.25;;;9.00;91.20;;;;;;6154545;22;92318;-69
2022/02/16 01:35:06;;;;;;;13.20;5.75;;;9.00;91.30;;;;;;6153850;22;92444;-69
2022/02/16 01:37:33;;;;;;;20.02;6.28;;;9.00;91.30;;;;;;6127597;22;97900;-70
2022/02/16 01:40:01;;;;;;;13.30;5.80;;;9.00;91.30;;;;;;6153503;22;97518;-70
2022/02/16 01:42:31;;;;;;;12.27;5.22;;;9.00;91.30;;;;;;6153983;22;92451;-69
2022/02/16 01:45:04;;;;;;;11.55;5.07;;;9.00;91.20;;;;;;6130031;22;92534;-69
2022/02/16 01:47:31;;;;;;;17.15;5.63;;;9.00;91.30;;;;;;6153873;22;95463;-70
2022/02/16 01:49:59;;;;;;;17.77;5.60;;;9.00;91.30;;;;;;6153593;22;95800;-70
2022/02/16 01:52:26;;;;;;;16.33;5.55;;;9.00;91.20;;;;;;6154273;22;92418;-70
2022/02/16 01:54:54;;;;;;;14.95;5.55;;;9.10;91.20;;;;;;6129493;22;91740;-69
2022/02/16 01:57:21;;;;;;;20.33;5.60;;;9.10;91.20;;;;;;6153391;22;95444;-70
2022/02/16 01:59:56;;;;;;;16.25;5.43;;;9.10;91.20;;;;;;6130064;22;94002;-70
2022/02/16 02:02:42;;;;;;;16.40;6.15;;;9.10;91.10;;;;;;6154612;22;94773;-69
2022/02/16 02:05:29;;;;;;;17.50;5.80;;;9.10;91.20;;;;;;6155269;22;92306;-69
2022/02/16 02:08:00;;;;;;;12.30;5.50;;;9.10;91.10;;;;;;6153534;22;94971;-69
2022/02/16 02:10:27;;;;;;;13.35;6.10;;;9.10;91.10;;;;;;6154151;22;95108;-70
2022/02/16 02:12:55;;;;;;;16.02;6.50;;;9.10;91.00;;;;;;6129296;22;92311;-69
2022/02/16 02:15:29;;;;;;;18.30;6.53;;;9.10;91.00;;;;;;6154109;22;92863;-70
2022/02/16 02:18:20;;;;;;;13.35;7.10;;;9.10;91.00;;;;;;6147315;22;92965;-70
2022/02/16 02:20:48;;;;;;;15.82;7.63;;;9.10;91.10;;;;;;6154206;22;95513;-69
2022/02/16 02:23:17;;;;;;;16.75;7.72;;;9.10;91.40;;;;;;6129772;22;92499;-69
2022/02/16 02:25:51;;;;;;;16.65;8.00;;;9.10;91.20;;;;;;6129345;22;92494;-70
2022/02/16 02:28:24;;;;;;;16.92;8.57;;;9.20;91.30;;;;;;6152533;22;98196;-69
2022/02/16 02:30:54;;;;;;;;;;;9.20;91.30;;;;;;6154154;22;97774;-70
2022/02/16 02:33:23;;;;;;;15.75;8.68;;;9.10;91.30;;;;;;6155431;22;92366;-70
2022/02/16 02:35:51;;;;;;;13.98;8.48;;;9.20;91.50;;;;;;6154188;22;92771;-69
2022/02/16 02:38:20;;;;;;;14.27;8.18;;;9.20;91.50;;;;;;6129407;22;95390;-70
2022/02/16 02:40:59;;;;;;;18.35;9.07;;;9.20;91.50;;;;;;6153732;22;95487;-69
2022/02/16 02:43:31;;;;;;;14.20;9.18;;;9.30;91.50;;;;;;6130351;22;92447;-69
2022/02/16 02:46:02;;;;;;;15.95;10.50;;;9.30;91.40;;;;;;6130170;22;91657;-69
2022/02/16 02:48:36;;;;;;;16.63;11.80;;;9.30;91.40;;;;;;6153232;22;95561;-69
2022/02/16 02:51:04;;;;;;;15.90;11.30;;;9.40;91.50;;;;;;6103518;22;95300;-70
2022/02/16 02:53:31;;;;;;;15.63;11.25;;;9.40;91.40;;;;;;6152072;22;95233;-70
2022/02/16 02:55:58;;;;;;;16.33;12.55;;;9.40;91.50;;;;;;6153243;22;92483;-70
2022/02/16 02:58:25;;;;;;;18.40;13.93;;;9.50;91.50;;;;;;6152705;22;94027;-70
2022/02/16 03:00:52;;;;;;;21.42;14.85;;;9.50;91.50;;;;;;6153142;22;95450;-70
2022/02/16 03:03:19;;;;;;;20.63;14.63;;;9.50;91.40;;;;;;6153093;22;92409;-69
2022/02/16 03:05:47;;;;;;;20.75;16.27;;;9.60;91.70;;;;;;6153060;22;92710;-70
2022/02/16 03:08:14;;;;;;;21.40;15.88;;;9.60;91.50;;;;;;6154245;22;93026;-70
2022/02/16 03:10:41;;;;;;;22.00;16.48;;;9.60;91.60;;;;;;6153073;22;95316;-76
2022/02/16 03:13:19;;;;;;;21.17;16.30;;;9.60;91.60;;;;;;6128045;22;92669;-76
2022/02/16 03:15:53;;;;;;;19.02;14.98;;;9.70;91.60;;;;;;6154976;22;92349;-76
2022/02/16 03:18:20;;;;;;;21.17;15.68;;;9.70;91.50;;;;;;6150646;22;98268;-76
2022/02/16 03:20:52;;;;;;;20.60;15.68;;;9.60;91.60;;;;;;6152795;22;98029;-76
2022/02/16 03:23:20;;;;;;;20.33;14.68;;;9.70;91.60;;;;;;6152902;22;92473;-76
2022/02/16 03:25:47;;;;;;;19.50;14.98;;;9.70;91.70;;;;;;6153472;22;92435;-76
2022/02/16 03:28:16;;;;;;;20.15;15.35;;;9.70;91.60;;;;;;6128004;22;95412;-76
2022/02/16 03:30:53;;;;;;;19.15;15.05;;;9.80;91.70;;;;;;6153305;22;94492;-76
2022/02/16 03:33:39;;;;;;;17.63;14.05;;;9.70;91.70;;;;;;6153400;22;92832;-76
2022/02/16 03:36:06;;;;;;;19.58;14.88;;;9.80;91.90;;;;;;6153098;22;91761;-76
2022/02/16 03:38:34;;;;;;;21.60;14.52;;;9.80;91.90;;;;;;6128046;22;95737;-76
2022/02/16 03:41:01;;;;;;;19.73;14.43;;;9.80;91.80;;;;;;6153042;22;94470;-76
2022/02/16 03:43:29;;;;;;;20.00;14.35;;;9.80;91.80;;;;;;6126796;22;94842;-76
2022/02/16 03:45:56;;;;;;;18.48;14.68;;;9.80;91.80;;;;;;6153030;22;92447;-76
2022/02/16 03:48:24;;;;;;;17.38;13.00;;;9.90;91.90;;;;;;6152524;22;95640;-76
2022/02/16 03:50:51;;;;;;;18.35;13.50;;;9.90;91.80;;;;;;6152710;22;95667;-76
2022/02/16 03:53:20;;;;;;;16.88;12.30;;;9.90;91.90;;;;;;6128028;22;92428;-76
2022/02/16 03:55:47;;;;;;;17.27;12.15;;;9.90;91.80;;;;;;6153081;22;92435;-76
2022/02/16 03:58:14;;;;;;;14.65;11.90;;;9.90;91.90;;;;;;6127326;22;95478;-76
2022/02/16 04:00:41;;;;;;;16.63;13.15;;;9.90;91.90;;;;;;6103727;22;95222;-69
2022/02/16 04:03:09;;;;;;;16.30;12.57;;;9.90;91.90;;;;;;6102845;22;92521;-70
2022/02/16 04:05:39;;;;;;;14.55;11.13;;;9.90;91.90;;;;;;6127447;22;92502;-69
2022/02/16 04:08:07;;;;;;;13.98;10.95;;;9.90;91.90;;;;;;6125473;22;98302;-69
2022/02/16 04:10:34;;;;;;;14.27;10.52;;;9.90;91.90;;;;;;6127321;22;98007;-70
2022/02/16 04:13:02;;;;;;;15.80;11.77;;;9.90;92.00;;;;;;6103197;22;92553;-69
2022/02/16 04:15:30;;;;;;;13.13;10.27;;;9.90;92.00;;;;;;6127441;22;92442;-70
2022/02/16 04:18:04;;;;;;;12.25;9.82;;;9.90;92.10;;;;;;6127328;22;94941;-69
2022/02/16 04:20:31;;;;;;;12.07;10.55;;;9.90;92.10;;;;;;6103962;22;95255;-69
2022/02/16 04:22:58;;;;;;;10.98;9.55;;;9.90;92.00;;;;;;6128743;22;92420;-69
2022/02/16 04:25:26;;;;;;;12.07;9.88;;;9.90;92.00;;;;;;6129617;22;91682;-69
2022/02/16 04:27:54;;;;;;;10.85;8.30;;;9.90;91.90;;;;;;6129153;22;95722;-70
2022/02/16 04:30:27;;;;;;;12.77;9.32;;;9.90;91.90;;;;;;6104934;22;95008;-70
2022/02/16 04:32:55;;;;;;;10.98;9.23;;;9.90;91.90;;;;;;6103913;22;94748;-70
2022/02/16 04:35:22;;;;;;;12.70;9.10;;;9.90;92.00;;;;;;6129108;22;92405;-69
2022/02/16 04:37:49;;;;;;;11.32;8.75;;;9.90;91.90;;;;;;6129368;22;94202;-70
2022/02/16 04:40:16;;;;;;;11.38;8.85;;;10.00;92.00;;;;;;6128787;22;95600;-70
2022/02/16 04:42:44;;;;;;;10.18;7.80;;;10.00;91.90;;;;;;6129385;22;92440;-69
2022/02/16 04:45:11;;;;;;;10.38;7.43;;;10.00;91.80;;;;;;6129070;22;92478;-69
2022/02/16 04:47:38;;;;;;;10.43;7.10;;;10.00;91.80;;;;;;6129786;22;93102;-69
2022/02/16 04:50:07;;;;;;;12.40;7.97;;;10.00;91.80;;;;;;6129625;22;95232;-70
2022/02/16 04:52:36;;;;;;;11.15;8.10;;;10.00;92.00;;;;;;6104927;22;92487;-70
2022/02/16 04:55:24;;;;;;;11.43;8.15;;;10.00;92.10;;;;;;6128957;22;92407;-70
2022/02/16 04:57:54;;;;;;;10.88;7.85;;;10.00;92.10;;;;;;6127607;22;97772;-70
2022/02/16 05:00:24;;;;;;;9.63;6.63;;;10.00;92.10;;;;;;6126905;22;98165;-70
2022/02/16 05:02:59;;;;;;;8.07;6.82;;;9.90;92.10;;;;;;6154335;22;92423;-69
2022/02/16 05:05:26;;;;;;;7.82;5.95;;;9.90;92.00;;;;;;6154136;22;92450;-70
2022/02/16 05:07:54;;;;;;;9.48;5.55;;;9.90;92.00;;;;;;6129478;22;95190;-69
2022/02/16 05:10:21;;;;;;;6.90;5.85;;;9.90;92.10;;;;;;6129150;22;95783;-69
2022/02/16 05:12:48;;;;;;;7.72;6.40;;;9.90;92.10;;;;;;6129645;22;92429;-70
2022/02/16 05:15:15;;;;;;;8.60;6.65;;;10.00;92.00;;;;;;6129953;22;92341;-69
2022/02/16 05:17:42;;;;;;;10.93;6.47;;;10.00;92.10;;;;;;6154431;22;93047;-69
2022/02/16 05:20:22;;;;;;;10.02;6.15;;;10.00;92.10;;;;;;6131698;22;94802;-70
2022/02/16 05:22:49;;;;;;;12.40;7.32;;;10.00;92.10;;;;;;6128040;22;94915;-69
2022/02/16 05:25:16;;;;;;;10.15;6.90;;;10.00;92.10;;;;;;6154075;22;92493;-70
2022/02/16 05:27:44;;;;;;;10.38;6.45;;;10.00;92.10;;;;;;6154283;22;95423;-69
2022/02/16 05:30:12;;;;;;;9.65;7.15;;;10.00;92.10;;;;;;6154099;22;95248;-69
2022/02/16 05:32:41;;;;;;;8.65;7.35;;;10.00;92.10;;;;;;6153950;22;92481;-69
2022/02/16 05:35:10;;;;;;;11.20;7.85;;;10.10;92.10;;;;;;6129335;22;92487;-70
2022/02/16 05:37:38;;;;;;;10.70;7.45;;;10.10;92.10;;;;;;6153694;22;95400;-70
2022/02/16 05:40:07;;;;;;;8.52;7.47;;;10.10;92.20;;;;;;6129670;22;94434;-70
2022/02/16 05:42:36;;;;;;;12.50;9.07;;;10.10;92.40;;;;;;6129273;22;92457;-70
2022/02/16 05:45:04;;;;;;;11.68;8.60;;;10.10;92.50;;;;;;6129949;22;92916;-70
2022/02/16 05:47:32;;;;;;;14.50;9.68;;;10.10;92.60;;;;;;6152294;22;97723;-70
2022/02/16 05:49:59;;;;;;;11.20;9.20;;;10.10;92.60;;;;;;6129058;22;98023;-69
2022/02/16 05:52:26;;;;;;;13.52;9.20;;;10.10;92.60;;;;;;6153899;22;92394;-69
2022/02/16 05:54:53;;;;;;;11.90;9.20;;;10.10;92.60;;;;;;6155998;22;92361;-70
2022/02/16 05:57:20;;;;;;;11.07;9.07;;;10.10;92.80;;;;;;6129346;22;95882;-70
2022/02/16 05:59:47;;;;;;;12.43;10.23;;;10.10;92.70;;;;;;6153489;22;93881;-69
2022/02/16 06:02:17;;;;;;;11.13;9.05;;;10.20;92.80;;;;;;6153307;22;92377;-69
2022/02/16 06:04:44;;;;;;;10.88;9.00;;;10.20;92.70;;;;;;6129413;22;91724;-70
2022/02/16 06:07:11;;;;;;;11.68;10.40;;;10.20;92.70;;;;;;6129239;22;95711;-69
2022/02/16 06:09:38;;;;;;;10.68;9.57;;;10.20;92.80;;;;;;6154736;22;93011;-69
2022/02/16 06:12:06;;;;;;;12.43;10.13;;;10.20;92.70;;;;;;6152587;22;94901;-70
2022/02/16 06:14:33;;;;;;;12.70;10.15;;;10.30;92.70;;;;;;6153029;22;92507;-69
2022/02/16 06:17:06;;;;;;;14.60;10.70;;;10.30;92.60;;;;;;6153356;22;95383;-70
2022/02/16 06:19:33;;;;;;;13.85;9.98;;;10.20;92.70;;;;;;6128233;22;95620;-70
2022/02/16 06:22:01;;;;;;;11.18;9.85;;;10.30;92.70;;;;;;6153638;22;92866;-70
2022/02/16 06:24:29;;;;;;;15.05;10.25;;;10.30;92.70;;;;;;6129076;22;92457;-70
2022/02/16 06:26:56;;;;;;;9.98;8.68;;;10.30;92.70;;;;;;6153092;22;95361;-70
2022/02/16 06:29:23;;;;;;;10.80;8.70;;;10.30;92.60;;;;;;6154406;22;95288;-70
2022/02/16 06:32:22;;;;;;;9.73;8.63;;;10.30;92.50;;;;;;6137230;22;92509;-70
2022/02/16 06:34:52;;;;;;;9.23;8.25;;;10.30;92.60;;;;;;6153841;22;92458;-70
2022/02/16 06:37:19;;;;;;;8.35;7.47;;;10.30;92.50;;;;;;6152307;22;97803;-69
2022/02/16 06:39:46;;;;;;;7.38;6.57;;;10.30;92.50;;;;;;6153490;22;97586;-70
2022/02/16 06:42:14;;;;;;;7.93;7.07;;;10.30;92.50;;;;;;6128802;22;92401;-69
2022/02/16 06:44:42;;;;;;;7.53;6.65;;;10.30;92.50;;;;;;6153640;22;92426;-70
2022/02/16 06:47:09;;;;;;;6.40;5.80;;;10.40;92.50;;;;;;6153765;22;95462;-69
2022/02/16 06:49:37;;;;;;;6.85;5.65;;;10.40;92.50;;;;;;6128758;22;95396;-70
2022/02/16 06:52:07;;;;;;;7.63;6.82;;;10.40;92.50;;;;;;6129508;22;92429;-70
2022/02/16 06:54:34;;;;;;;6.22;5.63;;;10.40;92.60;;;;;;6129128;22;91750;-70
2022/02/16 06:57:02;;;;;;;5.60;5.10;;;10.40;92.50;;;;;;6129201;22;94094;-70
2022/02/16 06:59:49;;;;;;;5.78;5.18;;;10.40;92.60;;;;;;6129773;22;93727;-70
2022/02/16 07:02:16;;;;;;;5.80;5.25;;;10.40;92.70;;;;;;6102553;22;94786;-70
2022/02/16 07:04:43;;;;;;;6.03;5.43;;;10.40;92.80;;;;;;6103734;22;92464;-70
2022/02/16 07:07:12;;;;;;;4.80;4.40;;;10.40;92.60;;;;;;6128247;22;96096;-70
2022/02/16 07:09:39;;;;;;;4.82;4.22;;;10.40;92.60;;;;;;6128328;22;94622;-69
2022/02/16 07:12:06;;;;;;;4.75;4.30;;;10.40;92.70;;;;;;6104326;22;93175;-69
2022/02/16 07:14:33;;;;;;;4.43;3.97;;;10.40;92.80;;;;;;6128329;22;92398;-69
2022/02/16 07:17:00;;;;;;;5.47;4.90;;;10.40;92.80;;;;;;6128446;22;95527;-70
2022/02/16 07:19:27;;;;;;;4.20;3.80;;;10.40;92.90;;;;;;6129183;22;92820;-70
2022/02/16 07:22:14;;;;;;;5.03;4.60;;;10.40;92.90;;;;;;6108198;22;92492;-70
2022/02/16 07:24:41;;;;;;;4.30;3.90;;;10.40;92.90;;;;;;6103778;22;92365;-70
2022/02/16 07:27:08;;;;;;;4.55;4.15;;;10.50;92.90;;;;;;6102562;22;98130;-70
2022/02/16 07:29:35;;;;;;;4.30;4.00;;;10.50;93.00;;;;;;6127950;22;97882;-70
2022/02/16 07:32:03;;;;;;;4.43;3.90;;;10.50;93.00;;;;;;6128718;22;92898;-70
2022/02/16 07:34:31;;;;;;;4.80;4.30;;;10.60;93.10;;;;;;6128495;22;92431;-70
2022/02/16 07:37:03;;;;;;;3.97;3.67;;;10.60;93.10;;;;;;6128498;22;95591;-69
2022/02/16 07:39:31;;;;;;;4.90;4.50;;;10.60;93.10;;;;;;6104184;22;95228;-70
2022/02/16 07:42:01;;;;;;;5.00;3.97;;;10.60;93.20;;;;;;6128449;22;92399;-70
2022/02/16 07:44:45;;;;;;;4.60;4.15;;;10.70;93.00;;;;;;6108132;22;91760;-70
2022/02/16 07:47:28;;;;;;;4.22;3.83;;;10.60;93.00;;;;;;6106845;22;95539;-70
2022/02/16 07:50:02;;;;;;;4.00;3.70;;;10.70;93.00;;;;;;6127997;22;94067;-69
2022/02/16 07:52:35;;;;;;;4.20;3.80;;;10.70;92.90;;;;;;6128269;22;94853;-70
2022/02/16 07:55:10;;;;;;;3.60;3.33;;;10.80;92.90;;;;;;6127922;22;92848;-70
2022/02/16 07:57:40;;;;;;;3.50;3.20;;;10.80;92.80;;;;;;6127666;22;95801;-70
2022/02/16 08:00:08;;;;;;;2.72;2.53;;;10.80;92.80;;;;;;6135748;22;95177;-69
2022/02/16 08:02:43;;;;;;;2.95;2.75;;;10.90;92.70;;;;;;6130083;22;92481;-70
2022/02/16 08:05:17;;;;;;;2.40;2.20;;;10.90;92.80;;;;;;6153631;22;92512;-70
2022/02/16 08:07:45;;;;;;;2.55;2.35;;;11.00;92.80;;;;;;6152910;22;94929;-70
2022/02/16 08:10:12;;;;;;;2.70;2.50;;;11.00;92.90;;;;;;6153692;22;95323;-70
2022/02/16 08:12:52;;;;;;;2.50;2.30;;;11.00;92.80;;;;;;6153623;22;92480;-70
2022/02/16 08:15:19;;;;;;;2.00;1.85;;;11.10;92.80;;;;;;6128832;22;92390;-70
2022/02/16 08:17:47;;;;;;;2.22;2.00;;;11.00;92.80;;;;;;6151293;22;96991;-70
2022/02/16 08:20:14;;;;;;;2.30;2.10;;;11.10;92.80;;;;;;6153043;22;97897;-70
2022/02/16 08:23:04;;;;;;;1.70;1.60;;;11.10;92.80;;;;;;6132553;22;92495;-70
2022/02/16 08:25:31;;;;;;;1.80;1.70;;;11.20;92.90;;;;;;6153266;22;92496;-70
2022/02/16 08:28:07;;;;;;;2.58;2.38;;;11.30;92.90;;;;;;6129463;22;95194;-70
2022/02/16 08:30:35;;;;;;;1.80;1.70;;;11.30;92.90;;;;;;6153237;22;95245;-70
2022/02/16 08:33:10;;;;;;;3.10;2.80;;;11.30;92.90;;;;;;6152847;22;92391;-70
2022/02/16 08:35:46;;;;;;;1.58;1.48;;;11.50;92.90;;;;;;6153636;22;91709;-70
2022/02/16 08:38:13;;;;;;;1.60;1.50;;;11.50;92.70;;;;;;6153544;22;93292;-70
2022/02/16 08:40:40;;;;;;;1.60;1.50;;;11.50;92.80;;;;;;6154626;22;92958;-70
2022/02/16 08:43:24;;;;;;;1.80;1.70;;;11.50;92.80;;;;;;6152280;22;94818;-70
2022/02/16 08:45:51;;;;;;;1.77;1.67;;;11.60;92.80;;;;;;6154857;22;92645;-70
2022/02/16 08:48:21;;;;;;;2.00;1.90;;;11.60;92.70;;;;;;6127985;22;94151;-70
2022/02/16 08:50:48;;;;;;;1.80;1.70;;;11.60;92.70;;;;;;6154511;22;92825;-70
2022/02/16 08:53:15;;;;;;;1.13;1.02;;;11.70;92.90;;;;;;6153130;22;92470;-70
2022/02/16 08:55:42;;;;;;;1.63;1.52;;;11.80;92.80;;;;;;6153462;22;92430;-69
2022/02/16 08:58:09;;;;;;;1.60;1.50;;;11.80;92.80;;;;;;6154294;22;93278;-70
2022/02/16 09:00:37;;;;;;;1.60;1.50;;;11.80;93.00;;;;;;6153138;22;95469;-70
2022/02/16 09:03:04;;;;;;;1.70;1.60;;;11.90;92.90;;;;;;6127778;22;92482;-70
2022/02/16 09:05:31;;;;;;;1.63;1.52;;;11.90;92.70;;;;;;6154847;22;92386;-70
2022/02/16 09:07:58;;;;;;;1.70;1.60;;;11.90;92.80;;;;;;6127525;22;98184;-70
2022/02/16 09:10:25;;;;;;;1.42;1.33;;;11.90;93.00;;;;;;6154347;22;96449;-70
2022/02/16 09:12:52;;;;;;;1.80;1.70;;;11.80;93.10;;;;;;6155910;22;92345;-70
2022/02/16 09:15:21;;;;;;;1.60;1.50;;;11.80;93.40;;;;;;6156185;22;92915;-70
2022/02/16 09:17:48;;;;;;;2.65;1.92;;;11.80;93.40;;;;;;6154102;22;95697;-70
2022/02/16 09:20:15;;;;;;;1.80;1.70;;;11.80;93.30;;;;;;6154348;22;92969;-70
2022/02/16 09:22:43;;;;;;;1.60;1.50;;;11.80;93.50;;;;;;6155577;22;100582;-70
2022/02/16 09:25:10;;;;;;;1.40;1.40;;;11.90;93.50;;;;;;6156193;22;92015;-70
2022/02/16 09:27:37;;;;;;;1.75;1.65;;;11.90;93.40;;;;;;6155796;22;92909;-70
2022/02/16 09:30:05;;;;;;;1.60;1.50;;;11.90;93.40;;;;;;6154198;22;93070;-70
2022/02/16 09:32:33;;;;;;;1.90;1.80;;;12.00;93.40;;;;;;6128030;22;94868;-70
2022/02/16 09:35:00;;;;;;;2.22;2.05;;;12.00;93.40;;;;;;6155736;22;92403;-70
2022/02/16 09:37:27;;;;;;;1.88;1.77;;;12.00;93.30;;;;;;6155788;22;93198;-70
2022/02/16 09:39:55;;;;;;;2.33;2.22;;;12.00;93.30;;;;;;6154029;22;92417;-70
2022/02/16 09:42:21;;;;;;;1.92;1.80;;;12.10;93.40;;;;;;6154211;22;92458;-70
2022/02/16 09:45:10;;;;;;;2.33;2.13;;;12.10;93.40;;;;;;6155393;22;100182;-70
2022/02/16 09:47:40;;;;;;;3.38;3.08;;;12.10;93.30;;;;;;6155653;22;93293;-70
2022/02/16 09:50:10;;;;;;;3.42;3.15;;;12.10;93.30;;;;;;6155989;22;92492;-70
2022/02/16 09:52:37;;;;;;;6.43;3.80;;;12.10;93.30;;;;;;6154544;22;92476;-70
2022/02/16 09:55:05;;;;;;;6.60;4.10;;;12.10;93.40;;;;;;6155609;22;92354;-70
2022/02/16 09:57:32;;;;;;;5.65;4.15;;;12.10;93.40;;;;;;6152604;22;95686;-70
2022/02/16 10:00:01;;;;;;;4.75;3.65;;;12.20;93.40;;;;;;6128751;22;97920;-70
2022/02/16 10:02:39;;;;;;;8.10;4.35;;;12.30;93.30;;;;;;6156000;22;92366;-70
2022/02/16 10:05:07;;;;;;;8.82;4.25;;;12.30;93.10;;;;;;6155476;22;94276;-70
2022/02/16 10:07:39;;;;;;;6.28;4.22;;;12.40;92.90;;;;;;6153746;22;95479;-70
2022/02/16 10:10:24;;;;;;;6.65;3.65;;;12.60;92.80;;;;;;6155342;22;93431;-70
2022/02/16 10:12:58;;;;;;;5.50;3.20;;;12.70;92.50;;;;;;6154593;22;92771;-70
2022/02/16 10:15:41;;;;;;;7.28;3.30;;;12.90;92.30;;;;;;6156313;22;91567;-70
2022/02/16 10:18:14;;;;;;;6.20;3.33;;;13.00;92.20;;;;;;6153348;22;93437;-70
2022/02/16 10:20:42;;;;;;;3.85;2.80;;;13.30;91.80;;;;;;6155655;22;93044;-70
2022/02/16 10:23:09;;;;;;;7.32;3.65;;;13.40;91.50;;;;;;6154049;22;94680;-70
2022/02/16 10:25:37;;;;;;;4.82;2.22;;;13.50;91.10;;;;;;6153948;22;93107;-70
2022/02/16 10:28:16;;;;;;;5.70;2.13;;;13.60;91.00;;;;;;6155279;22;93104;-70
2022/02/16 10:31:00;;;;;;;7.30;2.38;;;13.80;90.90;;;;;;6154162;22;94020;-70
2022/02/16 10:33:30;;;;;;;5.75;2.38;;;13.90;90.30;;;;;;6155903;22;92278;-70
2022/02/16 10:35:59;;;;;;;5.50;2.40;;;14.00;90.40;;;;;;6154219;22;92471;-70
2022/02/16 10:38:26;;;;;;;10.15;2.83;;;14.10;90.40;;;;;;6155494;22;93188;-70
2022/02/16 10:41:06;;;;;;;6.93;2.40;;;14.20;90.10;;;;;;6155638;22;100784;-70
2022/02/16 10:43:35;;;;;;;5.43;2.15;;;14.40;89.80;;;;;;6155715;22;92429;-70
2022/02/16 10:46:15;;;;;;;6.82;2.20;;;14.50;89.70;;;;;;6155627;22;92314;-70
2022/02/16 10:48:42;;;;;;;5.88;2.38;;;14.60;89.10;;;;;;6130064;22;98289;-70
2022/02/16 10:51:16;;;;;;;7.70;2.33;;;14.60;88.50;;;;;;6153294;22;97854;-70
2022/02/16 10:53:44;;;;;;;6.57;2.10;;;14.70;88.30;;;;;;6129348;22;92431;-70
2022/02/16 10:56:13;;;;;;;6.85;2.15;;;14.70;87.40;;;;;;6154012;22;92436;-70
2022/02/16 10:58:41;;;;;;;7.07;2.17;;;14.80;87.30;;;;;;6129009;22;96009;-70
2022/02/16 11:01:10;;;;;;;8.60;2.65;;;14.90;86.80;;;;;;6154809;22;93010;-70
2022/02/16 11:03:43;;;;;;;7.85;2.17;;;14.90;86.90;;;;;;6128440;22;92378;-70
2022/02/16 11:06:13;;;;;;;9.75;2.20;;;14.90;87.00;;;;;;6156030;22;91653;-70
2022/02/16 11:08:43;;;;;;;9.30;2.65;;;14.90;86.60;;;;;;6128406;22;96718;-70
2022/02/16 11:11:20;;;;;;;8.65;2.28;;;14.90;86.40;;;;;;6155284;22;92994;-71
2022/02/16 11:13:53;;;;;;;9.53;2.07;;;14.90;86.40;;;;;;6129155;22;94814;-70
2022/02/16 11:16:20;;;;;;;5.97;1.90;;;14.90;86.30;;;;;;6154522;22;104113;-70
2022/02/16 11:18:49;;;;;;;8.43;2.10;;;14.90;86.20;;;;;;6155267;22;93116;-70
2022/02/16 11:21:19;;;;;;;7.03;2.00;;;14.80;86.20;;;;;;6128430;22;92980;-70
2022/02/16 11:23:54;;;;;;;7.80;2.28;;;14.80;86.20;;;;;;6155476;22;92400;-70
2022/02/16 11:26:45;;;;;;;9.00;2.05;;;14.80;86.10;;;;;;6155629;22;92280;-70
2022/02/16 11:29:27;;;;;;;8.95;2.15;;;14.80;86.20;;;;;;6127894;22;95879;-70
2022/02/16 11:32:12;;;;;;;7.65;2.40;;;14.80;85.90;;;;;;6129180;22;92958;-70
2022/02/16 11:34:45;;;;;;;7.75;1.83;;;14.90;86.10;;;;;;6128613;22;92464;-70
2022/02/16 11:37:12;;;;;;;4.37;1.83;;;14.90;85.90;;;;;;6128220;22;92516;-70
2022/02/16 11:39:59;;;;;;;7.28;3.25;;;14.90;85.80;;;;;;6126928;22;98282;-70
2022/02/16 11:42:46;;;;;;;7.03;2.05;;;15.00;85.40;;;;;;6154777;22;94971;-70
2022/02/16 11:45:37;;;;;;;6.60;2.38;;;15.10;85.30;;;;;;6155133;22;92364;-70
2022/02/16 11:48:05;;;;;;;5.22;2.25;;;15.10;85.00;;;;;;6128401;22;94939;-70
2022/02/16 11:50:37;;;;;;;5.53;2.13;;;15.20;84.70;;;;;;6128336;22;94262;-70
2022/02/16 11:53:10;;;;;;;8.05;2.15;;;15.20;84.30;;;;;;6128531;22;94026;-70
2022/02/16 11:55:42;;;;;;;7.15;2.15;;;15.20;84.30;;;;;;6155400;22;92302;-70
2022/02/16 11:58:14;;;;;;;10.30;2.53;;;15.20;84.10;;;;;;6155800;22;91659;-70
2022/02/16 12:00:45;;;;;;;7.05;1.95;;;15.20;84.50;;;;;;6155175;22;92811;-70
2022/02/16 12:03:18;;;;;;;7.10;2.13;;;15.10;84.30;;;;;;6154987;22;92983;-70
2022/02/16 12:05:53;;;;;;;6.65;1.70;;;15.00;84.30;;;;;;6127022;22;94815;-70
2022/02/16 12:08:21;;;;;;;9.10;2.28;;;15.00;84.30;;;;;;6155203;22;92404;-70
2022/02/16 12:10:51;;;;;;;8.13;2.00;;;14.90;84.30;;;;;;6128563;22;93182;-70
2022/02/16 12:13:36;;;;;;;11.18;2.60;;;14.90;84.20;;;;;;6153927;22;107175;-70
2022/02/16 12:16:15;;;;;;;7.47;2.25;;;14.90;84.50;;;;;;6128442;22;92482;-70
2022/02/16 12:18:47;;;;;;;10.05;2.67;;;14.80;84.60;;;;;;6155223;22;92330;-70
2022/02/16 12:21:21;;;;;;;7.03;1.88;;;14.70;85.00;;;;;;6154813;22;93139;-70
2022/02/16 12:23:56;;;;;;;6.32;2.20;;;14.60;84.90;;;;;;6155555;22;92014;-70
2022/02/16 12:26:24;;;;;;;9.68;2.67;;;14.60;84.90;;;;;;6154897;22;92370;-70
2022/02/16 12:28:58;;;;;;;8.57;2.42;;;14.50;85.30;;;;;;6128472;22;92503;-70
2022/02/16 12:31:32;;;;;;;7.80;2.55;;;14.50;85.40;;;;;;6153068;22;96052;-70
2022/02/16 12:34:16;;;;;;;;;;;14.40;85.40;;;;;;6128393;22;97887;-70
2022/02/16 12:36:52;;;;;;;5.30;2.05;;;14.20;85.10;;;;;;6129510;22;92517;-70
2022/02/16 12:39:28;;;;;;;11.40;2.50;;;14.30;85.50;;;;;;6128092;22;92384;-70
2022/02/16 12:42:03;;;;;;;8.52;2.55;;;14.20;85.60;;;;;;6128802;22;95685;-70
2022/02/16 12:44:33;;;;;;;7.82;2.33;;;14.30;85.70;;;;;;6155585;22;93045;-70
2022/02/16 12:47:01;;;;;;;6.72;2.50;;;14.30;85.50;;;;;;6129325;22;92417;-69
2022/02/16 12:49:29;;;;;;;7.65;2.45;;;14.30;85.30;;;;;;6104480;22;91738;-69
2022/02/16 12:51:59;;;;;;;13.18;2.67;;;14.30;85.30;;;;;;6155822;22;93162;-69
2022/02/16 12:54:28;;;;;;;8.93;3.10;;;14.30;85.30;;;;;;6155651;22;93005;-70
2022/02/16 12:56:58;;;;;;;8.65;2.05;;;14.30;85.20;;;;;;6127656;22;94917;-69
2022/02/16 12:59:30;;;;;;;9.73;2.08;;;14.40;85.10;;;;;;6155418;22;92289;-70
2022/02/16 13:02:20;;;;;;;8.70;2.20;;;14.40;84.80;;;;;;6129678;22;93249;-69